sensor_id;sensor_type;location;lat;lon;timestamp;P1;durP1;ratioP1;P2;durP2;ratioP2
56653;SDS011;45096;52.302;4.634;2022-11-20T00:00:21;8.33;;;6.40;;
56653;SDS011;45096;52.302;4.634;2022-11-20T00:02:47;8.67;;;6.07;;
56653;SDS011;45096;52.302;4.634;2022-11-20T00:05:12;6.87;;;5.60;;
56653;SDS011;45096;52.302;4.634;2022-11-20T00:07:38;7.47;;;5.73;;
56653;SDS011;45096;52.302;4.634;2022-11-20T00:10:04;5.97;;;5.00;;
56653;SDS011;45096;52.302;4.634;2022-11-20T00:12:30;6.93;;;5.73;;
56653;SDS011;45096;52.302;4.634;2022-11-20T00:14:55;5.90;;;5.10;;
56653;SDS011;45096;52.302;4.634;2022-11-20T00:17:22;8.57;;;6.40;;
56653;SDS011;45096;52.302;4.634;2022-11-20T00:19:47;6.93;;;5.87;;
56653;SDS011;45096;52.302;4.634;2022-11-20T00:22:12;6.67;;;5.60;;
56653;SDS011;45096;52.302;4.634;2022-11-20T00:24:39;8.53;;;5.80;;
56653;SDS011;45096;52.302;4.634;2022-11-20T00:27:04;7.97;;;6.50;;
56653;SDS011;45096;52.302;4.634;2022-11-20T00:29:30;7.43;;;5.33;;
56653;SDS011;45096;52.302;4.634;2022-11-20T00:31:55;7.40;;;5.47;;
56653;SDS011;45096;52.302;4.634;2022-11-20T00:34:22;7.30;;;5.10;;
56653;SDS011;45096;52.302;4.634;2022-11-20T00:36:47;6.83;;;5.50;;
56653;SDS011;45096;52.302;4.634;2022-11-20T00:39:13;7.60;;;5.80;;
56653;SDS011;45096;52.302;4.634;2022-11-20T00:41:38;8.93;;;6.40;;
56653;SDS011;45096;52.302;4.634;2022-11-20T00:44:04;7.53;;;5.73;;
56653;SDS011;45096;52.302;4.634;2022-11-20T00:46:29;8.60;;;6.23;;
56653;SDS011;45096;52.302;4.634;2022-11-20T00:48:54;9.63;;;5.87;;
56653;SDS011;45096;52.302;4.634;2022-11-20T00:51:22;6.30;;;5.70;;
56653;SDS011;45096;52.302;4.634;2022-11-20T00:53:48;7.17;;;5.77;;
56653;SDS011;45096;52.302;4.634;2022-11-20T00:56:14;8.90;;;6.17;;
56653;SDS011;45096;52.302;4.634;2022-11-20T00:58:41;6.23;;;5.63;;
56653;SDS011;45096;52.302;4.634;2022-11-20T01:01:09;7.17;;;6.20;;
56653;SDS011;45096;52.302;4.634;2022-11-20T01:03:36;8.70;;;6.30;;
56653;SDS011;45096;52.302;4.634;2022-11-20T01:06:03;7.23;;;5.87;;
56653;SDS011;45096;52.302;4.634;2022-11-20T01:08:32;6.50;;;5.33;;
56653;SDS011;45096;52.302;4.634;2022-11-20T01:10:58;8.80;;;6.53;;
56653;SDS011;45096;52.302;4.634;2022-11-20T01:13:24;10.87;;;6.40;;
56653;SDS011;45096;52.302;4.634;2022-11-20T01:15:50;9.17;;;6.07;;
56653;SDS011;45096;52.302;4.634;2022-11-20T01:18:15;6.27;;;5.43;;
56653;SDS011;45096;52.302;4.634;2022-11-20T01:20:41;7.83;;;5.57;;
56653;SDS011;45096;52.302;4.634;2022-11-20T01:23:06;7.63;;;6.00;;
56653;SDS011;45096;52.302;4.634;2022-11-20T01:25:33;7.30;;;5.70;;
56653;SDS011;45096;52.302;4.634;2022-11-20T01:27:59;9.90;;;6.70;;
56653;SDS011;45096;52.302;4.634;2022-11-20T01:30:24;11.07;;;6.63;;
56653;SDS011;45096;52.302;4.634;2022-11-20T01:32:50;7.80;;;6.10;;
56653;SDS011;45096;52.302;4.634;2022-11-20T01:35:15;10.10;;;6.10;;
56653;SDS011;45096;52.302;4.634;2022-11-20T01:37:40;7.70;;;6.50;;
56653;SDS011;45096;52.302;4.634;2022-11-20T01:40:06;8.13;;;6.27;;
56653;SDS011;45096;52.302;4.634;2022-11-20T01:42:33;7.83;;;6.80;;
56653;SDS011;45096;52.302;4.634;2022-11-20T01:44:59;8.43;;;6.27;;
56653;SDS011;45096;52.302;4.634;2022-11-20T01:47:27;8.27;;;5.93;;
56653;SDS011;45096;52.302;4.634;2022-11-20T01:49:56;8.17;;;6.33;;
56653;SDS011;45096;52.302;4.634;2022-11-20T01:52:24;7.33;;;6.23;;
56653;SDS011;45096;52.302;4.634;2022-11-20T01:54:54;6.90;;;5.93;;
56653;SDS011;45096;52.302;4.634;2022-11-20T01:57:20;7.70;;;5.90;;
56653;SDS011;45096;52.302;4.634;2022-11-20T01:59:49;7.67;;;5.83;;
56653;SDS011;45096;52.302;4.634;2022-11-20T02:02:19;10.83;;;6.30;;
56653;SDS011;45096;52.302;4.634;2022-11-20T02:04:45;7.97;;;6.03;;
56653;SDS011;45096;52.302;4.634;2022-11-20T02:07:11;8.03;;;6.43;;
56653;SDS011;45096;52.302;4.634;2022-11-20T02:09:36;9.47;;;6.40;;
56653;SDS011;45096;52.302;4.634;2022-11-20T02:12:02;9.37;;;6.00;;
56653;SDS011;45096;52.302;4.634;2022-11-20T02:14:28;9.23;;;6.33;;
56653;SDS011;45096;52.302;4.634;2022-11-20T02:16:55;8.67;;;6.33;;
56653;SDS011;45096;52.302;4.634;2022-11-20T02:19:22;7.57;;;5.90;;
56653;SDS011;45096;52.302;4.634;2022-11-20T02:21:52;8.83;;;6.43;;
56653;SDS011;45096;52.302;4.634;2022-11-20T02:24:25;6.93;;;5.40;;
56653;SDS011;45096;52.302;4.634;2022-11-20T02:26:51;7.70;;;6.23;;
56653;SDS011;45096;52.302;4.634;2022-11-20T02:29:19;8.63;;;6.07;;
56653;SDS011;45096;52.302;4.634;2022-11-20T02:31:49;10.60;;;7.10;;
56653;SDS011;45096;52.302;4.634;2022-11-20T02:34:15;8.73;;;7.00;;
56653;SDS011;45096;52.302;4.634;2022-11-20T02:36:40;9.83;;;6.67;;
56653;SDS011;45096;52.302;4.634;2022-11-20T02:39:06;8.30;;;7.00;;
56653;SDS011;45096;52.302;4.634;2022-11-20T02:41:34;7.97;;;6.00;;
56653;SDS011;45096;52.302;4.634;2022-11-20T02:44:01;10.30;;;6.40;;
56653;SDS011;45096;52.302;4.634;2022-11-20T02:46:27;8.03;;;6.40;;
56653;SDS011;45096;52.302;4.634;2022-11-20T02:48:53;7.50;;;6.17;;
56653;SDS011;45096;52.302;4.634;2022-11-20T02:51:18;7.77;;;6.40;;
56653;SDS011;45096;52.302;4.634;2022-11-20T02:53:44;8.27;;;6.50;;
56653;SDS011;45096;52.302;4.634;2022-11-20T02:56:09;7.17;;;5.77;;
56653;SDS011;45096;52.302;4.634;2022-11-20T02:58:36;10.97;;;6.97;;
56653;SDS011;45096;52.302;4.634;2022-11-20T03:01:02;9.63;;;6.97;;
56653;SDS011;45096;52.302;4.634;2022-11-20T03:03:27;7.10;;;5.80;;
56653;SDS011;45096;52.302;4.634;2022-11-20T03:05:52;8.27;;;6.10;;
56653;SDS011;45096;52.302;4.634;2022-11-20T03:08:18;8.80;;;6.43;;
56653;SDS011;45096;52.302;4.634;2022-11-20T03:10:43;8.03;;;6.27;;
56653;SDS011;45096;52.302;4.634;2022-11-20T03:13:09;7.53;;;5.50;;
56653;SDS011;45096;52.302;4.634;2022-11-20T03:15:36;7.80;;;5.63;;
56653;SDS011;45096;52.302;4.634;2022-11-20T03:18:02;8.47;;;6.13;;
56653;SDS011;45096;52.302;4.634;2022-11-20T03:20:27;8.13;;;6.40;;
56653;SDS011;45096;52.302;4.634;2022-11-20T03:22:53;6.80;;;6.10;;
56653;SDS011;45096;52.302;4.634;2022-11-20T03:25:20;7.17;;;6.20;;
56653;SDS011;45096;52.302;4.634;2022-11-20T03:27:45;8.60;;;6.27;;
56653;SDS011;45096;52.302;4.634;2022-11-20T03:30:11;9.50;;;6.57;;
56653;SDS011;45096;52.302;4.634;2022-11-20T03:32:38;11.57;;;6.67;;
56653;SDS011;45096;52.302;4.634;2022-11-20T03:35:04;8.73;;;6.80;;
56653;SDS011;45096;52.302;4.634;2022-11-20T03:37:30;8.67;;;6.17;;
56653;SDS011;45096;52.302;4.634;2022-11-20T03:39:56;9.70;;;6.33;;
56653;SDS011;45096;52.302;4.634;2022-11-20T03:42:21;8.33;;;6.33;;
56653;SDS011;45096;52.302;4.634;2022-11-20T03:44:47;9.30;;;6.00;;
56653;SDS011;45096;52.302;4.634;2022-11-20T03:47:12;8.43;;;5.77;;
56653;SDS011;45096;52.302;4.634;2022-11-20T03:49:39;8.83;;;6.10;;
56653;SDS011;45096;52.302;4.634;2022-11-20T03:52:04;9.60;;;5.63;;
56653;SDS011;45096;52.302;4.634;2022-11-20T03:54:30;8.40;;;6.07;;
56653;SDS011;45096;52.302;4.634;2022-11-20T03:56:55;7.73;;;5.90;;
56653;SDS011;45096;52.302;4.634;2022-11-20T03:59:20;9.73;;;6.27;;
56653;SDS011;45096;52.302;4.634;2022-11-20T04:01:46;9.57;;;6.13;;
56653;SDS011;45096;52.302;4.634;2022-11-20T04:04:11;7.77;;;5.63;;
56653;SDS011;45096;52.302;4.634;2022-11-20T04:06:38;11.17;;;6.27;;
56653;SDS011;45096;52.302;4.634;2022-11-20T04:09:03;9.60;;;6.40;;
56653;SDS011;45096;52.302;4.634;2022-11-20T04:11:31;10.10;;;6.33;;
56653;SDS011;45096;52.302;4.634;2022-11-20T04:13:57;9.23;;;5.83;;
56653;SDS011;45096;52.302;4.634;2022-11-20T04:16:24;9.20;;;5.93;;
56653;SDS011;45096;52.302;4.634;2022-11-20T04:18:51;9.27;;;6.17;;
56653;SDS011;45096;52.302;4.634;2022-11-20T04:21:17;9.03;;;6.90;;
56653;SDS011;45096;52.302;4.634;2022-11-20T04:23:43;7.87;;;6.43;;
56653;SDS011;45096;52.302;4.634;2022-11-20T04:26:09;7.47;;;6.03;;
56653;SDS011;45096;52.302;4.634;2022-11-20T04:28:36;10.67;;;6.43;;
56653;SDS011;45096;52.302;4.634;2022-11-20T04:31:02;8.07;;;5.90;;
56653;SDS011;45096;52.302;4.634;2022-11-20T04:33:29;9.13;;;6.77;;
56653;SDS011;45096;52.302;4.634;2022-11-20T04:35:54;9.17;;;6.40;;
56653;SDS011;45096;52.302;4.634;2022-11-20T04:38:20;7.20;;;5.73;;
56653;SDS011;45096;52.302;4.634;2022-11-20T04:40:46;7.83;;;5.87;;
56653;SDS011;45096;52.302;4.634;2022-11-20T04:43:12;8.50;;;6.17;;
56653;SDS011;45096;52.302;4.634;2022-11-20T04:45:37;8.60;;;6.10;;
56653;SDS011;45096;52.302;4.634;2022-11-20T04:48:03;10.97;;;7.13;;
56653;SDS011;45096;52.302;4.634;2022-11-20T04:50:28;8.33;;;6.13;;
56653;SDS011;45096;52.302;4.634;2022-11-20T04:52:54;7.37;;;5.77;;
56653;SDS011;45096;52.302;4.634;2022-11-20T04:55:19;9.30;;;6.77;;
56653;SDS011;45096;52.302;4.634;2022-11-20T04:57:46;8.93;;;6.10;;
56653;SDS011;45096;52.302;4.634;2022-11-20T05:00:15;8.03;;;6.13;;
56653;SDS011;45096;52.302;4.634;2022-11-20T05:02:41;9.57;;;7.10;;
56653;SDS011;45096;52.302;4.634;2022-11-20T05:05:06;8.57;;;5.93;;
56653;SDS011;45096;52.302;4.634;2022-11-20T05:07:32;8.97;;;6.37;;
56653;SDS011;45096;52.302;4.634;2022-11-20T05:09:58;7.47;;;6.27;;
56653;SDS011;45096;52.302;4.634;2022-11-20T05:12:23;8.33;;;6.20;;
56653;SDS011;45096;52.302;4.634;2022-11-20T05:14:50;9.03;;;6.60;;
56653;SDS011;45096;52.302;4.634;2022-11-20T05:17:15;11.47;;;7.07;;
56653;SDS011;45096;52.302;4.634;2022-11-20T05:19:41;7.00;;;6.30;;
56653;SDS011;45096;52.302;4.634;2022-11-20T05:22:06;9.40;;;6.60;;
56653;SDS011;45096;52.302;4.634;2022-11-20T05:24:31;11.67;;;7.00;;
56653;SDS011;45096;52.302;4.634;2022-11-20T05:26:57;8.80;;;6.50;;
56653;SDS011;45096;52.302;4.634;2022-11-20T05:29:22;8.43;;;6.17;;
56653;SDS011;45096;52.302;4.634;2022-11-20T05:31:49;10.93;;;6.60;;
56653;SDS011;45096;52.302;4.634;2022-11-20T05:34:14;11.20;;;6.93;;
56653;SDS011;45096;52.302;4.634;2022-11-20T05:36:40;8.63;;;6.83;;
56653;SDS011;45096;52.302;4.634;2022-11-20T05:39:05;8.67;;;6.53;;
56653;SDS011;45096;52.302;4.634;2022-11-20T05:41:32;9.50;;;7.17;;
56653;SDS011;45096;52.302;4.634;2022-11-20T05:43:58;8.13;;;6.17;;
56653;SDS011;45096;52.302;4.634;2022-11-20T05:46:23;11.30;;;6.83;;
56653;SDS011;45096;52.302;4.634;2022-11-20T05:48:50;9.40;;;5.93;;
56653;SDS011;45096;52.302;4.634;2022-11-20T05:51:16;9.83;;;7.10;;
56653;SDS011;45096;52.302;4.634;2022-11-20T05:53:43;9.33;;;7.03;;
56653;SDS011;45096;52.302;4.634;2022-11-20T05:56:09;7.30;;;6.47;;
56653;SDS011;45096;52.302;4.634;2022-11-20T05:58:35;9.00;;;7.17;;
56653;SDS011;45096;52.302;4.634;2022-11-20T06:01:05;9.87;;;6.87;;
56653;SDS011;45096;52.302;4.634;2022-11-20T06:03:32;11.73;;;7.10;;
56653;SDS011;45096;52.302;4.634;2022-11-20T06:05:59;7.10;;;5.97;;
56653;SDS011;45096;52.302;4.634;2022-11-20T06:08:25;9.73;;;6.47;;
56653;SDS011;45096;52.302;4.634;2022-11-20T06:10:50;9.60;;;7.23;;
56653;SDS011;45096;52.302;4.634;2022-11-20T06:13:16;10.93;;;6.77;;
56653;SDS011;45096;52.302;4.634;2022-11-20T06:15:41;9.53;;;6.53;;
56653;SDS011;45096;52.302;4.634;2022-11-20T06:18:07;8.47;;;6.90;;
56653;SDS011;45096;52.302;4.634;2022-11-20T06:20:32;12.03;;;7.17;;
56653;SDS011;45096;52.302;4.634;2022-11-20T06:22:59;10.23;;;6.60;;
56653;SDS011;45096;52.302;4.634;2022-11-20T06:25:24;9.93;;;6.30;;
56653;SDS011;45096;52.302;4.634;2022-11-20T06:27:50;8.93;;;6.83;;
56653;SDS011;45096;52.302;4.634;2022-11-20T06:30:15;9.23;;;6.80;;
56653;SDS011;45096;52.302;4.634;2022-11-20T06:32:41;8.03;;;6.57;;
56653;SDS011;45096;52.302;4.634;2022-11-20T06:35:06;10.03;;;7.00;;
56653;SDS011;45096;52.302;4.634;2022-11-20T06:37:32;10.50;;;7.70;;
56653;SDS011;45096;52.302;4.634;2022-11-20T06:39:59;9.80;;;6.80;;
56653;SDS011;45096;52.302;4.634;2022-11-20T06:42:25;11.20;;;6.93;;
56653;SDS011;45096;52.302;4.634;2022-11-20T06:44:50;10.37;;;7.10;;
56653;SDS011;45096;52.302;4.634;2022-11-20T06:47:15;11.37;;;7.00;;
56653;SDS011;45096;52.302;4.634;2022-11-20T06:49:41;9.77;;;7.10;;
56653;SDS011;45096;52.302;4.634;2022-11-20T06:52:06;11.27;;;7.33;;
56653;SDS011;45096;52.302;4.634;2022-11-20T06:54:32;11.00;;;7.20;;
56653;SDS011;45096;52.302;4.634;2022-11-20T06:56:58;10.83;;;7.23;;
56653;SDS011;45096;52.302;4.634;2022-11-20T06:59:24;11.93;;;7.37;;
56653;SDS011;45096;52.302;4.634;2022-11-20T07:01:49;9.20;;;7.47;;
56653;SDS011;45096;52.302;4.634;2022-11-20T07:04:14;8.20;;;6.60;;
56653;SDS011;45096;52.302;4.634;2022-11-20T07:06:40;8.73;;;7.07;;
56653;SDS011;45096;52.302;4.634;2022-11-20T07:09:05;7.80;;;7.00;;
56653;SDS011;45096;52.302;4.634;2022-11-20T07:11:31;9.27;;;7.17;;
56653;SDS011;45096;52.302;4.634;2022-11-20T07:13:57;10.40;;;6.77;;
56653;SDS011;45096;52.302;4.634;2022-11-20T07:16:23;11.07;;;7.23;;
56653;SDS011;45096;52.302;4.634;2022-11-20T07:18:48;8.87;;;7.27;;
56653;SDS011;45096;52.302;4.634;2022-11-20T07:21:14;9.50;;;6.77;;
56653;SDS011;45096;52.302;4.634;2022-11-20T07:23:39;10.10;;;7.07;;
56653;SDS011;45096;52.302;4.634;2022-11-20T07:26:05;10.80;;;7.13;;
56653;SDS011;45096;52.302;4.634;2022-11-20T07:28:31;9.83;;;6.67;;
56653;SDS011;45096;52.302;4.634;2022-11-20T07:30:59;10.13;;;6.90;;
56653;SDS011;45096;52.302;4.634;2022-11-20T07:33:24;12.03;;;8.10;;
56653;SDS011;45096;52.302;4.634;2022-11-20T07:35:49;9.87;;;7.30;;
56653;SDS011;45096;52.302;4.634;2022-11-20T07:38:15;7.83;;;6.87;;
56653;SDS011;45096;52.302;4.634;2022-11-20T07:40:40;13.83;;;7.40;;
56653;SDS011;45096;52.302;4.634;2022-11-20T07:43:06;11.23;;;7.50;;
56653;SDS011;45096;52.302;4.634;2022-11-20T07:45:31;14.50;;;7.77;;
56653;SDS011;45096;52.302;4.634;2022-11-20T07:47:58;11.23;;;8.00;;
56653;SDS011;45096;52.302;4.634;2022-11-20T07:50:24;11.07;;;7.63;;
56653;SDS011;45096;52.302;4.634;2022-11-20T07:52:49;9.53;;;7.63;;
56653;SDS011;45096;52.302;4.634;2022-11-20T07:55:15;10.87;;;7.23;;
56653;SDS011;45096;52.302;4.634;2022-11-20T07:57:40;12.03;;;7.90;;
56653;SDS011;45096;52.302;4.634;2022-11-20T08:00:06;10.60;;;8.20;;
56653;SDS011;45096;52.302;4.634;2022-11-20T08:02:33;12.03;;;7.90;;
56653;SDS011;45096;52.302;4.634;2022-11-20T08:05:00;10.03;;;7.67;;
56653;SDS011;45096;52.302;4.634;2022-11-20T08:07:25;11.77;;;7.93;;
56653;SDS011;45096;52.302;4.634;2022-11-20T08:09:51;9.53;;;7.63;;
56653;SDS011;45096;52.302;4.634;2022-11-20T08:12:16;12.60;;;7.47;;
56653;SDS011;45096;52.302;4.634;2022-11-20T08:14:43;11.17;;;7.73;;
56653;SDS011;45096;52.302;4.634;2022-11-20T08:17:08;10.57;;;7.20;;
56653;SDS011;45096;52.302;4.634;2022-11-20T08:19:34;12.27;;;7.60;;
56653;SDS011;45096;52.302;4.634;2022-11-20T08:22:00;11.70;;;8.13;;
56653;SDS011;45096;52.302;4.634;2022-11-20T08:24:26;11.83;;;7.80;;
56653;SDS011;45096;52.302;4.634;2022-11-20T08:26:51;11.67;;;7.83;;
56653;SDS011;45096;52.302;4.634;2022-11-20T08:29:16;11.93;;;7.70;;
56653;SDS011;45096;52.302;4.634;2022-11-20T08:31:42;9.90;;;7.20;;
56653;SDS011;45096;52.302;4.634;2022-11-20T08:34:07;13.50;;;8.83;;
56653;SDS011;45096;52.302;4.634;2022-11-20T08:36:33;12.40;;;8.73;;
56653;SDS011;45096;52.302;4.634;2022-11-20T08:39:00;9.90;;;7.20;;
56653;SDS011;45096;52.302;4.634;2022-11-20T08:41:25;10.67;;;7.67;;
56653;SDS011;45096;52.302;4.634;2022-11-20T08:43:51;10.23;;;7.70;;
56653;SDS011;45096;52.302;4.634;2022-11-20T08:46:18;11.67;;;7.73;;
56653;SDS011;45096;52.302;4.634;2022-11-20T08:48:44;11.73;;;7.80;;
56653;SDS011;45096;52.302;4.634;2022-11-20T08:51:10;12.50;;;8.00;;
56653;SDS011;45096;52.302;4.634;2022-11-20T08:53:35;13.00;;;9.33;;
56653;SDS011;45096;52.302;4.634;2022-11-20T08:56:02;10.93;;;7.77;;
56653;SDS011;45096;52.302;4.634;2022-11-20T08:58:28;9.43;;;7.27;;
56653;SDS011;45096;52.302;4.634;2022-11-20T09:00:53;14.30;;;7.40;;
56653;SDS011;45096;52.302;4.634;2022-11-20T09:03:19;11.53;;;8.40;;
56653;SDS011;45096;52.302;4.634;2022-11-20T09:05:44;12.77;;;8.53;;
56653;SDS011;45096;52.302;4.634;2022-11-20T09:08:10;10.97;;;8.03;;
56653;SDS011;45096;52.302;4.634;2022-11-20T09:10:35;10.67;;;7.17;;
56653;SDS011;45096;52.302;4.634;2022-11-20T09:13:02;10.93;;;8.10;;
56653;SDS011;45096;52.302;4.634;2022-11-20T09:15:27;11.97;;;7.50;;
56653;SDS011;45096;52.302;4.634;2022-11-20T09:17:53;11.03;;;8.60;;
56653;SDS011;45096;52.302;4.634;2022-11-20T09:20:19;9.43;;;7.73;;
56653;SDS011;45096;52.302;4.634;2022-11-20T09:22:44;10.90;;;8.33;;
56653;SDS011;45096;52.302;4.634;2022-11-20T09:25:10;10.83;;;8.43;;
56653;SDS011;45096;52.302;4.634;2022-11-20T09:27:35;13.03;;;8.37;;
56653;SDS011;45096;52.302;4.634;2022-11-20T09:30:02;14.17;;;8.97;;
56653;SDS011;45096;52.302;4.634;2022-11-20T09:32:28;11.60;;;8.33;;
56653;SDS011;45096;52.302;4.634;2022-11-20T09:34:53;12.60;;;8.90;;
56653;SDS011;45096;52.302;4.634;2022-11-20T09:37:19;16.47;;;9.77;;
56653;SDS011;45096;52.302;4.634;2022-11-20T09:39:44;13.07;;;8.90;;
56653;SDS011;45096;52.302;4.634;2022-11-20T09:42:14;10.83;;;7.90;;
56653;SDS011;45096;52.302;4.634;2022-11-20T09:44:50;13.57;;;9.03;;
56653;SDS011;45096;52.302;4.634;2022-11-20T09:47:29;17.13;;;8.40;;
56653;SDS011;45096;52.302;4.634;2022-11-20T09:50:16;12.10;;;8.37;;
56653;SDS011;45096;52.302;4.634;2022-11-20T09:52:49;12.50;;;8.63;;
56653;SDS011;45096;52.302;4.634;2022-11-20T09:55:22;12.60;;;8.73;;
56653;SDS011;45096;52.302;4.634;2022-11-20T09:57:48;14.40;;;9.20;;
56653;SDS011;45096;52.302;4.634;2022-11-20T10:00:16;13.10;;;8.63;;
56653;SDS011;45096;52.302;4.634;2022-11-20T10:02:44;11.13;;;7.73;;
56653;SDS011;45096;52.302;4.634;2022-11-20T10:05:15;12.57;;;8.83;;
56653;SDS011;45096;52.302;4.634;2022-11-20T10:07:44;13.47;;;9.07;;
56653;SDS011;45096;52.302;4.634;2022-11-20T10:10:14;13.47;;;8.70;;
56653;SDS011;45096;52.302;4.634;2022-11-20T10:12:43;12.33;;;8.50;;
56653;SDS011;45096;52.302;4.634;2022-11-20T10:15:22;14.67;;;10.00;;
56653;SDS011;45096;52.302;4.634;2022-11-20T10:18:01;14.03;;;9.87;;
56653;SDS011;45096;52.302;4.634;2022-11-20T10:20:37;13.00;;;10.20;;
56653;SDS011;45096;52.302;4.634;2022-11-20T10:25:53;15.20;;;8.93;;
56653;SDS011;45096;52.302;4.634;2022-11-20T10:28:26;15.93;;;9.30;;
56653;SDS011;45096;52.302;4.634;2022-11-20T10:30:56;15.27;;;9.83;;
56653;SDS011;45096;52.302;4.634;2022-11-20T10:33:26;15.77;;;9.57;;
56653;SDS011;45096;52.302;4.634;2022-11-20T10:35:57;12.07;;;9.37;;
56653;SDS011;45096;52.302;4.634;2022-11-20T10:38:26;15.37;;;10.53;;
56653;SDS011;45096;52.302;4.634;2022-11-20T10:40:57;12.83;;;9.07;;
56653;SDS011;45096;52.302;4.634;2022-11-20T10:43:25;13.43;;;9.90;;
56653;SDS011;45096;52.302;4.634;2022-11-20T10:45:55;15.73;;;10.57;;
56653;SDS011;45096;52.302;4.634;2022-11-20T10:48:23;17.00;;;10.73;;
56653;SDS011;45096;52.302;4.634;2022-11-20T10:50:56;13.07;;;9.87;;
56653;SDS011;45096;52.302;4.634;2022-11-20T10:53:43;15.77;;;10.43;;
56653;SDS011;45096;52.302;4.634;2022-11-20T10:56:15;17.77;;;11.03;;
56653;SDS011;45096;52.302;4.634;2022-11-20T10:58:45;13.63;;;9.83;;
56653;SDS011;45096;52.302;4.634;2022-11-20T11:01:15;13.23;;;9.53;;
56653;SDS011;45096;52.302;4.634;2022-11-20T11:03:41;16.17;;;9.87;;
56653;SDS011;45096;52.302;4.634;2022-11-20T11:06:10;16.20;;;10.53;;
56653;SDS011;45096;52.302;4.634;2022-11-20T11:08:39;15.47;;;10.37;;
56653;SDS011;45096;52.302;4.634;2022-11-20T11:11:07;16.17;;;10.63;;
56653;SDS011;45096;52.302;4.634;2022-11-20T11:13:42;16.77;;;10.37;;
56653;SDS011;45096;52.302;4.634;2022-11-20T11:16:16;18.70;;;11.17;;
56653;SDS011;45096;52.302;4.634;2022-11-20T11:18:45;14.63;;;10.47;;
56653;SDS011;45096;52.302;4.634;2022-11-20T11:21:12;20.23;;;10.80;;
56653;SDS011;45096;52.302;4.634;2022-11-20T11:23:38;15.50;;;10.20;;
56653;SDS011;45096;52.302;4.634;2022-11-20T11:26:05;16.07;;;10.90;;
56653;SDS011;45096;52.302;4.634;2022-11-20T11:28:32;17.97;;;10.53;;
56653;SDS011;45096;52.302;4.634;2022-11-20T11:30:57;14.93;;;10.90;;
56653;SDS011;45096;52.302;4.634;2022-11-20T11:33:23;19.13;;;11.77;;
56653;SDS011;45096;52.302;4.634;2022-11-20T11:35:50;18.40;;;11.27;;
56653;SDS011;45096;52.302;4.634;2022-11-20T11:38:19;17.80;;;10.70;;
56653;SDS011;45096;52.302;4.634;2022-11-20T11:40:46;18.00;;;11.57;;
56653;SDS011;45096;52.302;4.634;2022-11-20T11:43:19;19.73;;;11.87;;
56653;SDS011;45096;52.302;4.634;2022-11-20T11:45:50;20.97;;;12.87;;
56653;SDS011;45096;52.302;4.634;2022-11-20T11:48:17;18.90;;;11.67;;
56653;SDS011;45096;52.302;4.634;2022-11-20T11:50:47;22.60;;;12.37;;
56653;SDS011;45096;52.302;4.634;2022-11-20T11:53:14;15.77;;;11.03;;
56653;SDS011;45096;52.302;4.634;2022-11-20T11:55:44;18.07;;;12.10;;
56653;SDS011;45096;52.302;4.634;2022-11-20T11:58:13;16.17;;;11.40;;
56653;SDS011;45096;52.302;4.634;2022-11-20T12:00:45;16.80;;;10.90;;
56653;SDS011;45096;52.302;4.634;2022-11-20T12:03:16;17.10;;;11.67;;
56653;SDS011;45096;52.302;4.634;2022-11-20T12:05:44;19.70;;;12.13;;
56653;SDS011;45096;52.302;4.634;2022-11-20T12:08:14;17.50;;;11.57;;
56653;SDS011;45096;52.302;4.634;2022-11-20T12:10:45;20.53;;;14.23;;
56653;SDS011;45096;52.302;4.634;2022-11-20T12:13:17;21.63;;;13.73;;
56653;SDS011;45096;52.302;4.634;2022-11-20T12:15:47;19.57;;;13.90;;
56653;SDS011;45096;52.302;4.634;2022-11-20T12:18:14;23.07;;;13.87;;
56653;SDS011;45096;52.302;4.634;2022-11-20T12:20:41;23.50;;;13.50;;
56653;SDS011;45096;52.302;4.634;2022-11-20T12:23:14;21.30;;;13.10;;
56653;SDS011;45096;52.302;4.634;2022-11-20T12:25:45;20.57;;;12.57;;
56653;SDS011;45096;52.302;4.634;2022-11-20T12:28:28;22.13;;;13.27;;
56653;SDS011;45096;52.302;4.634;2022-11-20T12:31:08;22.27;;;14.53;;
56653;SDS011;45096;52.302;4.634;2022-11-20T12:33:43;22.77;;;13.10;;
56653;SDS011;45096;52.302;4.634;2022-11-20T12:36:19;19.83;;;13.23;;
56653;SDS011;45096;52.302;4.634;2022-11-20T12:38:58;22.73;;;13.03;;
56653;SDS011;45096;52.302;4.634;2022-11-20T12:41:51;22.27;;;13.27;;
56653;SDS011;45096;52.302;4.634;2022-11-20T12:44:29;23.70;;;13.47;;
56653;SDS011;45096;52.302;4.634;2022-11-20T12:47:07;20.77;;;13.03;;
56653;SDS011;45096;52.302;4.634;2022-11-20T12:49:41;22.80;;;14.70;;
56653;SDS011;45096;52.302;4.634;2022-11-20T12:52:17;21.37;;;14.33;;
56653;SDS011;45096;52.302;4.634;2022-11-20T12:54:52;22.00;;;14.23;;
56653;SDS011;45096;52.302;4.634;2022-11-20T12:57:44;23.70;;;14.73;;
56653;SDS011;45096;52.302;4.634;2022-11-20T13:00:14;24.33;;;13.97;;
56653;SDS011;45096;52.302;4.634;2022-11-20T13:02:49;28.80;;;16.23;;
56653;SDS011;45096;52.302;4.634;2022-11-20T13:05:27;28.80;;;14.93;;
56653;SDS011;45096;52.302;4.634;2022-11-20T13:07:56;25.20;;;14.53;;
56653;SDS011;45096;52.302;4.634;2022-11-20T13:10:25;23.87;;;14.67;;
56653;SDS011;45096;52.302;4.634;2022-11-20T13:12:58;21.23;;;13.23;;
56653;SDS011;45096;52.302;4.634;2022-11-20T13:15:33;23.97;;;14.37;;
56653;SDS011;45096;52.302;4.634;2022-11-20T13:18:04;22.27;;;14.07;;
56653;SDS011;45096;52.302;4.634;2022-11-20T13:20:33;24.87;;;14.97;;
56653;SDS011;45096;52.302;4.634;2022-11-20T13:23:00;23.70;;;14.50;;
56653;SDS011;45096;52.302;4.634;2022-11-20T13:25:26;25.77;;;13.23;;
56653;SDS011;45096;52.302;4.634;2022-11-20T13:27:53;22.60;;;13.40;;
56653;SDS011;45096;52.302;4.634;2022-11-20T13:30:21;23.53;;;13.60;;
56653;SDS011;45096;52.302;4.634;2022-11-20T13:32:48;24.97;;;13.70;;
56653;SDS011;45096;52.302;4.634;2022-11-20T13:35:23;21.67;;;13.03;;
56653;SDS011;45096;52.302;4.634;2022-11-20T13:37:58;26.80;;;13.60;;
56653;SDS011;45096;52.302;4.634;2022-11-20T13:40:25;25.73;;;14.00;;
56653;SDS011;45096;52.302;4.634;2022-11-20T13:42:54;23.30;;;14.50;;
56653;SDS011;45096;52.302;4.634;2022-11-20T13:45:23;21.07;;;13.70;;
56653;SDS011;45096;52.302;4.634;2022-11-20T13:47:50;25.57;;;14.57;;
56653;SDS011;45096;52.302;4.634;2022-11-20T13:50:17;27.07;;;15.30;;
56653;SDS011;45096;52.302;4.634;2022-11-20T13:52:46;23.43;;;14.97;;
56653;SDS011;45096;52.302;4.634;2022-11-20T13:55:19;22.23;;;14.20;;
56653;SDS011;45096;52.302;4.634;2022-11-20T13:57:54;22.83;;;14.37;;
56653;SDS011;45096;52.302;4.634;2022-11-20T14:00:26;22.67;;;14.20;;
56653;SDS011;45096;52.302;4.634;2022-11-20T14:02:57;26.70;;;14.90;;
56653;SDS011;45096;52.302;4.634;2022-11-20T14:05:26;29.50;;;16.63;;
56653;SDS011;45096;52.302;4.634;2022-11-20T14:07:51;27.90;;;15.67;;
56653;SDS011;45096;52.302;4.634;2022-11-20T14:10:21;27.50;;;15.03;;
56653;SDS011;45096;52.302;4.634;2022-11-20T14:12:48;24.43;;;14.20;;
56653;SDS011;45096;52.302;4.634;2022-11-20T14:15:22;27.10;;;14.50;;
56653;SDS011;45096;52.302;4.634;2022-11-20T14:17:51;23.03;;;15.00;;
56653;SDS011;45096;52.302;4.634;2022-11-20T14:20:16;28.73;;;14.70;;
56653;SDS011;45096;52.302;4.634;2022-11-20T14:22:47;26.50;;;14.43;;
56653;SDS011;45096;52.302;4.634;2022-11-20T14:25:18;26.17;;;15.70;;
56653;SDS011;45096;52.302;4.634;2022-11-20T14:27:46;26.53;;;15.07;;
56653;SDS011;45096;52.302;4.634;2022-11-20T14:30:16;24.30;;;15.07;;
56653;SDS011;45096;52.302;4.634;2022-11-20T14:32:43;27.60;;;14.90;;
56653;SDS011;45096;52.302;4.634;2022-11-20T14:35:13;26.00;;;14.03;;
56653;SDS011;45096;52.302;4.634;2022-11-20T14:37:41;27.40;;;13.57;;
56653;SDS011;45096;52.302;4.634;2022-11-20T14:40:21;26.30;;;14.13;;